AirNav   Air Wisconsin Up To $57,000 Bonus
 
 898 users online  

9PA1 Endless Mountains Health Systems Heliport
Montrose, Pennsylvania, USA


FAA INFORMATION EFFECTIVE 30 JANUARY 2020

Location

FAA Identifier: 9PA1
Lat/Long: 41-50-17.1300N 075-50-14.5000W
41-50.285500N 075-50.241667W
41.8380917,-75.8373611
(estimated)
Elevation: 1774 ft. / 541 m (estimated)
From city: 2 miles E of MONTROSE, PA
Time zone: UTC -5 (UTC -4 during Daylight Saving Time)
Zip code: 18801

Heliport Operations

Heliport use: Private use. Permission required prior to landing
Activation date: 06/2018
Control tower: no
ARTCC: NEW YORK CENTER
FSS: WILLIAMSPORT FLIGHT SERVICE STATION
Attendance: 
Wind indicator: lighted
Segmented circle: no

Heliport Communications

WX AWOS-3 at CZG (18 nm NW): 119.075 (607-785-2926)

Nearby radio navigation aids

VOR radial/distance  VOR name  Freq  Var
CFBr155/23.3BINGHAMTON VOR/DME112.2010W
HNKr251/26.9HANCOCK VOR/DME116.8011W
LVZr359/34.6WILKES-BARRE VORTAC111.6010W

Heliport Services

Runway Information

Helipad H1

Dimensions: 40 x 40 ft. / 12 x 12 m
Surface: asphalt, in fair condition
Runway edge lights: PERI
Latitude: 41-50.285500N
Longitude: 075-50.241667W
Elevation: 1774.0 ft.
Traffic pattern: leftleft

Heliport Ownership and Management from official FAA records

Ownership: Privately-owned
Owner: ENDLESS MOUNTAINS HEALTH SYSTEM
100 HOSPITAL DRIVE
MONTROSE, PA 18801
Phone 570-278-3801
Manager: TOM LONZINSKI
100 HOSPITAL DRIVE
MONTROSE, PA 18801
Phone 570-278-3801

Additional Remarks

FOR CD CTC NEW YORK ARTCC AT 631-468-1425.

Instrument Procedures

There are no published instrument procedures at 9PA1.

Some nearby airports with instrument procedures:

9N3 - Seamans Field Airport (15 nm S)
KCZG - Tri-Cities Airport (18 nm NW)
KBGM - Greater Binghamton Airport/Edwin A Link Field (23 nm N)
N27 - Bradford County Airport (28 nm W)
KAVP - Wilkes-Barre/Scranton International Airport (30 nm S)
 
Loc | Ops | Rwys | IFR | FBO | Links
Com | Nav | Svcs | Stats | Notes
Aerial photo
WARNING: Photo may not be current or correct
Aerial photo of 9PA1 (Endless Mountains Health Systems Heliport)
Photo by David M. Conboy
Photo taken 12-Oct-2018
looking northeast.

Do you have a better or more recent aerial photo of Endless Mountains Health Systems Heliport that you would like to share? If so, please send us your photo.

 
Airport distance calculator
Flying to Endless Mountains Health Systems Heliport? Find the distance to fly.

From to 9PA1

Sunrise and sunset
Times for 16-Feb-2020
 Local
(UTC-5)
 Zulu
(UTC)
Morning civil twilight06:3011:30
Sunrise06:5911:59
Sunset17:3622:36
Evening civil twilight18:0523:05

Current date and time
Zulu (UTC)  17-Feb-2020 01:11:59
Local (UTC-5)  16-Feb-2020 20:11:59
 
METAR
KBGM 
24nm N 
170053Z 23006KT 10SM CLR 00/M04 A3000 RMK AO2 SLP178 T00001044
KAVP 
31nm S 
170054Z 23003KT 10SM OVC110 02/M04 A3007 RMK AO2 SLP191 T00221039 $
KITH 
47nm NW 
170056Z 00000KT 10SM FEW045 M02/M04 A3003 RMK AO2 SLP182 T10221039
KMPO 
47nm SE 
170053Z AUTO 27009KT 10SM BKN065 OVC085 00/M04 A3002 RMK AO2 SLP189 T00001044
TAF
KBGM 
24nm N 
161734Z 1618/1718 25008KT P6SM OVC035 TEMPO 1618/1620 OVC025 FM170200 28005KT P6SM OVC035 FM170600 31005KT P6SM OVC025 FM171700 32005KT P6SM BKN035
NOTAMs
Click for the latest NOTAMs
NOTAMs are issued by the DoD/FAA and will open in a separate window not controlled by AirNav.

 

 
 

Would you like to see your business listed on this page?

 If your business provides an interesting product or service to pilots, flight crews, aircraft, or users of the Endless Mountains Health Systems Heliport, you should consider listing it here.  To start the listing process, click on the button below
 
Add a business
 

Other Pages about Endless Mountains Health Systems Heliport

Update a link
 
Copyright © AirNav, LLC. All rights reserved. Privacy Policy  Contact